Flight Track Log - Related Links

Times and Time Zones

All times are in EDT time to prevent confusion due to time zone crossing. See the N7191N flight status page for this flight to view local times or setup timezone preferences in your user account.

Time Position Orientation Groundspeed Altitude Reporting Facility
EDT Latitude Longitude Course Direction KTS MPH feet Rate Location/Type
Fri 09:24:18 AM 41.4000 -81.8869 288° West 158 182 1,500  Level Cleveland Center
Fri 09:24:42 AM 41.4061 -81.9119 288° West 159 183 2,100 1,385 Climbing Cleveland Center
Fri 09:25:36 AM 41.4286 -81.9539 306° West 173 199 3,300 1,252 Climbing Cleveland Center
Fri 09:26:37 AM 41.4569 -82.0100 304° West 184 212 4,500 1,082 Climbing Cleveland Center
Fri 09:27:38 AM 41.4917 -82.0661 310° West 204 235 5,500 992 Climbing Cleveland Center
Fri 09:28:44 AM 41.5367 -82.1367 310° West 211 243 6,600 945 Climbing Cleveland Center
Fri 09:29:45 AM 41.5733 -82.1958 310° West 219 252 7,500 689 Climbing Cleveland Center
Fri 09:30:46 AM 41.6142 -82.2606 310° West 226 260 8,000 248 Climbing Cleveland Center
Fri 09:31:46 AM 41.6569 -82.3342 308° West 250 288 8,000  Level Cleveland Center
Fri 09:32:41 AM 41.6975 -82.3964 311° West 250 288 8,000 -40 Level Cleveland Center
Fri 09:34:16 AM 41.7686 -82.5097 310° West 244 281 7,900 -38 Descending Cleveland Center
Fri 09:35:17 AM 41.8133 -82.5781 311° West 243 280 7,900  Level Cleveland Center
Fri 09:36:18 AM 41.8644 -82.6325 322° Northwest 246 283 7,900 -148 Level Cleveland Center
Fri 09:37:19 AM 41.9286 -82.6681 338° Northwest 248 285 7,600 -658 Descending Cleveland Center
Fri 09:38:44 AM 42.0233 -82.7242 336° Northwest 253 291 6,300 -722 Descending Cleveland Center
Fri 09:39:32 AM 42.0731 -82.7456 342° North 247 284 6,000 -678 Descending Cleveland Center
Fri 09:40:39 AM 42.1494 -82.7844 339° North 254 292 5,000 -469 Descending Cleveland Center
Fri 09:41:40 AM 42.2114 -82.8175 338° Northwest 239 275 5,000 -62 Level Cleveland Center
Fri 09:42:16 AM 42.2483 -82.8356 340° North 240 276 4,900 -50 Descending Cleveland Center
Fri 09:43:41 AM 42.3353 -82.8781 340° North 234 269 4,900 -207 Level Cleveland Center
Fri 09:44:12 AM 42.3658 -82.9017 330° Northwest 240 276 4,500 -635 Descending Cleveland Center
Fri 09:45:06 AM 42.4194 -82.9400 332° Northwest 253 291 4,000 -470 Descending Cleveland Center
Fri 09:46:07 AM 42.4789 -82.9789 334° Northwest 256 295 3,600 -516 Descending Cleveland Center
Fri 09:47:14 AM 42.5083 -83.0758 292° West 237 273 2,900 -328 Descending Cleveland Center
Fri 09:48:15 AM 42.5356 -83.1558 295° West 229 264 2,900 47 Level Cleveland Center
Fri 09:49:21 AM 42.5611 -83.2331 294° West 223 257 3,000 47 Climbing Cleveland Center
Fri 09:50:22 AM 42.5861 -83.3158 292° West 225 259 3,000  Level Cleveland Center
Fri 09:51:23 AM 42.5986 -83.4039 281° West 221 254 3,000  Level Cleveland Center
Fri 09:52:17 AM 42.5992 -83.4658 271° West 196 226 3,000 -365 Level Cleveland Center
Fri 09:53:18 AM 42.6400 -83.4961 331° Northwest 164 189 2,300 -656 Descending Cleveland Center
Fri 09:54:25 AM 42.6639 -83.4633 45° Northeast 102 117 1,600 -627 Descending Cleveland Center
Fri 09:56:00 AM 42.6500 -83.4167 90° East  Level FlightAware Approximate
Fri 10:03:00 AM 42.6656 -83.4205 90° East  Level Estimated

Login

Don't have an account? Register now (free) for customized features, flight alerts, and more!